sensor_id;sensor_type;location;lat;lon;timestamp;P1;durP1;ratioP1;P2;durP2;ratioP2
52266;SDS011;38223;50.940;4.034;2023-05-16T00:01:46;13.68;;;2.90;;
52266;SDS011;38223;50.940;4.034;2023-05-16T00:04:21;13.78;;;2.35;;
52266;SDS011;38223;50.940;4.034;2023-05-16T00:06:52;13.80;;;2.42;;
52266;SDS011;38223;50.940;4.034;2023-05-16T00:09:21;20.32;;;3.40;;
52266;SDS011;38223;50.940;4.034;2023-05-16T00:11:53;19.07;;;3.15;;
52266;SDS011;38223;50.940;4.034;2023-05-16T00:14:27;14.60;;;2.47;;
52266;SDS011;38223;50.940;4.034;2023-05-16T00:16:57;10.72;;;2.15;;
52266;SDS011;38223;50.940;4.034;2023-05-16T00:19:29;20.62;;;3.33;;
52266;SDS011;38223;50.940;4.034;2023-05-16T00:21:59;17.70;;;3.00;;
52266;SDS011;38223;50.940;4.034;2023-05-16T00:24:30;19.67;;;2.90;;
52266;SDS011;38223;50.940;4.034;2023-05-16T00:26:59;19.12;;;2.98;;
52266;SDS011;38223;50.940;4.034;2023-05-16T00:29:29;19.02;;;2.62;;
52266;SDS011;38223;50.940;4.034;2023-05-16T00:32:00;19.75;;;3.50;;
52266;SDS011;38223;50.940;4.034;2023-05-16T00:34:31;17.65;;;3.15;;
52266;SDS011;38223;50.940;4.034;2023-05-16T00:37:04;14.43;;;2.90;;
52266;SDS011;38223;50.940;4.034;2023-05-16T00:39:35;14.78;;;2.22;;
52266;SDS011;38223;50.940;4.034;2023-05-16T00:42:13;16.93;;;3.25;;
52266;SDS011;38223;50.940;4.034;2023-05-16T00:44:45;15.72;;;3.30;;
52266;SDS011;38223;50.940;4.034;2023-05-16T00:47:19;12.82;;;2.83;;
52266;SDS011;38223;50.940;4.034;2023-05-16T00:49:49;17.75;;;2.90;;
52266;SDS011;38223;50.940;4.034;2023-05-16T00:54:57;10.68;;;2.83;;
52266;SDS011;38223;50.940;4.034;2023-05-16T00:57:30;17.80;;;2.75;;
52266;SDS011;38223;50.940;4.034;2023-05-16T01:00:07;18.02;;;3.80;;
52266;SDS011;38223;50.940;4.034;2023-05-16T01:02:39;13.35;;;2.72;;
52266;SDS011;38223;50.940;4.034;2023-05-16T01:05:15;15.83;;;2.72;;
52266;SDS011;38223;50.940;4.034;2023-05-16T01:07:45;15.05;;;2.92;;
52266;SDS011;38223;50.940;4.034;2023-05-16T01:10:14;17.40;;;2.95;;
52266;SDS011;38223;50.940;4.034;2023-05-16T01:16:19;13.08;;;2.58;;
52266;SDS011;38223;50.940;4.034;2023-05-16T01:18:28;18.77;;;3.20;;
52266;SDS011;38223;50.940;4.034;2023-05-16T01:20:59;15.60;;;2.98;;
52266;SDS011;38223;50.940;4.034;2023-05-16T01:23:52;14.83;;;2.70;;
52266;SDS011;38223;50.940;4.034;2023-05-16T01:26:22;16.00;;;2.85;;
52266;SDS011;38223;50.940;4.034;2023-05-16T01:28:54;16.15;;;2.92;;
52266;SDS011;38223;50.940;4.034;2023-05-16T01:31:24;17.48;;;2.98;;
52266;SDS011;38223;50.940;4.034;2023-05-16T01:33:53;15.20;;;3.45;;
52266;SDS011;38223;50.940;4.034;2023-05-16T01:36:37;18.23;;;3.60;;
52266;SDS011;38223;50.940;4.034;2023-05-16T01:42:02;16.75;;;3.52;;
52266;SDS011;38223;50.940;4.034;2023-05-16T01:44:37;12.93;;;2.98;;
52266;SDS011;38223;50.940;4.034;2023-05-16T01:47:15;14.68;;;2.98;;
52266;SDS011;38223;50.940;4.034;2023-05-16T01:52:41;22.90;;;4.15;;
52266;SDS011;38223;50.940;4.034;2023-05-16T01:55:22;17.07;;;3.37;;
52266;SDS011;38223;50.940;4.034;2023-05-16T01:58:12;12.57;;;2.77;;
52266;SDS011;38223;50.940;4.034;2023-05-16T02:00:45;27.40;;;3.65;;
52266;SDS011;38223;50.940;4.034;2023-05-16T02:03:16;18.98;;;2.80;;
52266;SDS011;38223;50.940;4.034;2023-05-16T02:05:44;16.07;;;3.20;;
52266;SDS011;38223;50.940;4.034;2023-05-16T02:08:11;15.88;;;2.92;;
52266;SDS011;38223;50.940;4.034;2023-05-16T02:10:40;16.70;;;2.87;;
52266;SDS011;38223;50.940;4.034;2023-05-16T02:13:09;17.50;;;2.83;;
52266;SDS011;38223;50.940;4.034;2023-05-16T02:15:40;18.23;;;3.33;;
52266;SDS011;38223;50.940;4.034;2023-05-16T02:18:15;18.45;;;3.05;;
52266;SDS011;38223;50.940;4.034;2023-05-16T02:20:43;17.92;;;3.47;;
52266;SDS011;38223;50.940;4.034;2023-05-16T02:23:20;14.98;;;3.20;;
52266;SDS011;38223;50.940;4.034;2023-05-16T02:25:50;22.75;;;3.92;;
52266;SDS011;38223;50.940;4.034;2023-05-16T02:28:21;17.02;;;3.55;;
52266;SDS011;38223;50.940;4.034;2023-05-16T02:30:56;20.95;;;3.25;;
52266;SDS011;38223;50.940;4.034;2023-05-16T02:33:33;19.45;;;3.72;;
52266;SDS011;38223;50.940;4.034;2023-05-16T02:36:05;16.73;;;2.75;;
52266;SDS011;38223;50.940;4.034;2023-05-16T02:38:40;24.95;;;3.37;;
52266;SDS011;38223;50.940;4.034;2023-05-16T02:41:11;11.63;;;2.72;;
52266;SDS011;38223;50.940;4.034;2023-05-16T02:43:39;20.68;;;3.08;;
52266;SDS011;38223;50.940;4.034;2023-05-16T02:46:21;14.35;;;2.92;;
52266;SDS011;38223;50.940;4.034;2023-05-16T02:48:58;21.42;;;3.10;;
52266;SDS011;38223;50.940;4.034;2023-05-16T02:51:27;14.83;;;3.10;;
52266;SDS011;38223;50.940;4.034;2023-05-16T02:53:55;22.07;;;3.77;;
52266;SDS011;38223;50.940;4.034;2023-05-16T02:56:24;16.12;;;3.77;;
52266;SDS011;38223;50.940;4.034;2023-05-16T02:58:53;17.60;;;3.25;;
52266;SDS011;38223;50.940;4.034;2023-05-16T03:01:23;17.30;;;3.12;;
52266;SDS011;38223;50.940;4.034;2023-05-16T03:03:53;11.93;;;3.05;;
52266;SDS011;38223;50.940;4.034;2023-05-16T03:06:25;13.32;;;3.25;;
52266;SDS011;38223;50.940;4.034;2023-05-16T03:08:55;11.00;;;3.15;;
52266;SDS011;38223;50.940;4.034;2023-05-16T03:11:25;13.53;;;3.10;;
52266;SDS011;38223;50.940;4.034;2023-05-16T03:13:58;14.70;;;2.60;;
52266;SDS011;38223;50.940;4.034;2023-05-16T03:16:27;12.13;;;2.67;;
52266;SDS011;38223;50.940;4.034;2023-05-16T03:18:57;15.35;;;2.70;;
52266;SDS011;38223;50.940;4.034;2023-05-16T03:21:25;17.25;;;2.92;;
52266;SDS011;38223;50.940;4.034;2023-05-16T03:23:56;18.32;;;3.50;;
52266;SDS011;38223;50.940;4.034;2023-05-16T03:26:28;15.78;;;3.40;;
52266;SDS011;38223;50.940;4.034;2023-05-16T03:29:02;14.40;;;3.00;;
52266;SDS011;38223;50.940;4.034;2023-05-16T03:31:32;11.50;;;2.85;;
52266;SDS011;38223;50.940;4.034;2023-05-16T03:34:01;18.50;;;3.77;;
52266;SDS011;38223;50.940;4.034;2023-05-16T03:36:29;14.35;;;3.08;;
52266;SDS011;38223;50.940;4.034;2023-05-16T03:38:57;12.23;;;2.72;;
52266;SDS011;38223;50.940;4.034;2023-05-16T03:41:24;13.95;;;3.05;;
52266;SDS011;38223;50.940;4.034;2023-05-16T03:44:00;17.98;;;2.95;;
52266;SDS011;38223;50.940;4.034;2023-05-16T03:46:30;11.68;;;2.90;;
52266;SDS011;38223;50.940;4.034;2023-05-16T03:49:02;11.68;;;2.52;;
52266;SDS011;38223;50.940;4.034;2023-05-16T03:51:39;15.78;;;2.75;;
52266;SDS011;38223;50.940;4.034;2023-05-16T03:54:10;9.60;;;2.70;;
52266;SDS011;38223;50.940;4.034;2023-05-16T03:56:47;9.58;;;2.60;;
52266;SDS011;38223;50.940;4.034;2023-05-16T03:59:14;13.83;;;2.85;;
52266;SDS011;38223;50.940;4.034;2023-05-16T04:01:45;10.18;;;3.10;;
52266;SDS011;38223;50.940;4.034;2023-05-16T04:04:15;10.88;;;3.22;;
52266;SDS011;38223;50.940;4.034;2023-05-16T04:06:48;14.35;;;3.52;;
52266;SDS011;38223;50.940;4.034;2023-05-16T04:09:17;10.72;;;3.60;;
52266;SDS011;38223;50.940;4.034;2023-05-16T04:11:50;15.48;;;3.90;;
52266;SDS011;38223;50.940;4.034;2023-05-16T04:14:22;14.90;;;4.75;;
52266;SDS011;38223;50.940;4.034;2023-05-16T04:16:54;21.23;;;5.33;;
52266;SDS011;38223;50.940;4.034;2023-05-16T04:19:27;15.95;;;5.65;;
52266;SDS011;38223;50.940;4.034;2023-05-16T04:21:56;19.82;;;5.08;;
52266;SDS011;38223;50.940;4.034;2023-05-16T04:24:24;18.23;;;6.15;;
52266;SDS011;38223;50.940;4.034;2023-05-16T04:26:54;20.25;;;6.00;;
52266;SDS011;38223;50.940;4.034;2023-05-16T04:29:23;21.60;;;6.72;;
52266;SDS011;38223;50.940;4.034;2023-05-16T04:31:51;23.57;;;7.03;;
52266;SDS011;38223;50.940;4.034;2023-05-16T04:34:22;23.18;;;7.62;;
52266;SDS011;38223;50.940;4.034;2023-05-16T04:36:54;18.00;;;6.72;;
52266;SDS011;38223;50.940;4.034;2023-05-16T04:39:23;20.67;;;8.47;;
52266;SDS011;38223;50.940;4.034;2023-05-16T04:44:24;22.95;;;7.53;;
52266;SDS011;38223;50.940;4.034;2023-05-16T04:46:55;23.07;;;7.92;;
52266;SDS011;38223;50.940;4.034;2023-05-16T04:49:29;19.07;;;7.85;;
52266;SDS011;38223;50.940;4.034;2023-05-16T04:54:31;23.38;;;8.05;;
52266;SDS011;38223;50.940;4.034;2023-05-16T04:57:02;20.02;;;8.10;;
52266;SDS011;38223;50.940;4.034;2023-05-16T04:59:32;19.25;;;8.28;;
52266;SDS011;38223;50.940;4.034;2023-05-16T05:02:05;20.20;;;8.68;;
52266;SDS011;38223;50.940;4.034;2023-05-16T05:04:38;19.87;;;9.10;;
52266;SDS011;38223;50.940;4.034;2023-05-16T05:07:09;21.12;;;8.88;;
52266;SDS011;38223;50.940;4.034;2023-05-16T05:09:43;27.15;;;9.43;;
52266;SDS011;38223;50.940;4.034;2023-05-16T05:12:15;23.32;;;8.80;;
52266;SDS011;38223;50.940;4.034;2023-05-16T05:14:45;26.12;;;8.40;;
52266;SDS011;38223;50.940;4.034;2023-05-16T05:17:18;20.15;;;8.65;;
52266;SDS011;38223;50.940;4.034;2023-05-16T05:19:48;19.05;;;7.95;;
52266;SDS011;38223;50.940;4.034;2023-05-16T05:22:23;21.75;;;8.85;;
52266;SDS011;38223;50.940;4.034;2023-05-16T05:24:57;21.00;;;8.38;;
52266;SDS011;38223;50.940;4.034;2023-05-16T05:27:26;21.70;;;7.12;;
52266;SDS011;38223;50.940;4.034;2023-05-16T05:29:56;18.87;;;7.37;;
52266;SDS011;38223;50.940;4.034;2023-05-16T05:32:23;18.15;;;6.83;;
52266;SDS011;38223;50.940;4.034;2023-05-16T05:34:51;19.90;;;7.58;;
52266;SDS011;38223;50.940;4.034;2023-05-16T05:37:19;14.53;;;6.85;;
52266;SDS011;38223;50.940;4.034;2023-05-16T05:39:46;17.70;;;7.47;;
52266;SDS011;38223;50.940;4.034;2023-05-16T05:42:14;15.28;;;7.05;;
52266;SDS011;38223;50.940;4.034;2023-05-16T05:44:45;25.85;;;7.25;;
52266;SDS011;38223;50.940;4.034;2023-05-16T05:47:13;15.25;;;6.28;;
52266;SDS011;38223;50.940;4.034;2023-05-16T05:49:45;21.10;;;6.70;;
52266;SDS011;38223;50.940;4.034;2023-05-16T05:52:17;15.55;;;6.35;;
52266;SDS011;38223;50.940;4.034;2023-05-16T05:54:49;19.40;;;6.67;;
52266;SDS011;38223;50.940;4.034;2023-05-16T05:57:16;20.05;;;6.10;;
52266;SDS011;38223;50.940;4.034;2023-05-16T05:59:48;13.40;;;5.12;;
52266;SDS011;38223;50.940;4.034;2023-05-16T06:02:18;21.87;;;6.37;;
52266;SDS011;38223;50.940;4.034;2023-05-16T06:04:50;16.75;;;4.92;;
52266;SDS011;38223;50.940;4.034;2023-05-16T06:07:22;11.25;;;4.72;;
52266;SDS011;38223;50.940;4.034;2023-05-16T06:09:53;12.37;;;4.87;;
52266;SDS011;38223;50.940;4.034;2023-05-16T06:12:22;13.78;;;4.03;;
52266;SDS011;38223;50.940;4.034;2023-05-16T06:14:52;16.67;;;4.28;;
52266;SDS011;38223;50.940;4.034;2023-05-16T06:17:20;18.77;;;4.08;;
52266;SDS011;38223;50.940;4.034;2023-05-16T06:19:50;9.10;;;3.22;;
52266;SDS011;38223;50.940;4.034;2023-05-16T06:22:20;14.73;;;4.65;;
52266;SDS011;38223;50.940;4.034;2023-05-16T06:24:48;16.65;;;3.92;;
52266;SDS011;38223;50.940;4.034;2023-05-16T06:27:21;12.37;;;3.67;;
52266;SDS011;38223;50.940;4.034;2023-05-16T06:29:53;12.68;;;2.98;;
52266;SDS011;38223;50.940;4.034;2023-05-16T06:32:26;16.55;;;2.70;;
52266;SDS011;38223;50.940;4.034;2023-05-16T06:34:57;10.78;;;2.80;;
52266;SDS011;38223;50.940;4.034;2023-05-16T06:37:35;14.70;;;2.00;;
52266;SDS011;38223;50.940;4.034;2023-05-16T06:40:06;11.08;;;2.17;;
52266;SDS011;38223;50.940;4.034;2023-05-16T06:42:38;9.38;;;1.67;;
52266;SDS011;38223;50.940;4.034;2023-05-16T06:45:08;12.30;;;2.08;;
52266;SDS011;38223;50.940;4.034;2023-05-16T06:47:40;8.33;;;1.92;;
52266;SDS011;38223;50.940;4.034;2023-05-16T06:50:11;12.33;;;2.25;;
52266;SDS011;38223;50.940;4.034;2023-05-16T06:52:38;7.25;;;1.90;;
52266;SDS011;38223;50.940;4.034;2023-05-16T06:55:09;11.68;;;2.02;;
52266;SDS011;38223;50.940;4.034;2023-05-16T06:57:38;8.00;;;1.92;;
52266;SDS011;38223;50.940;4.034;2023-05-16T07:00:06;10.93;;;1.80;;
52266;SDS011;38223;50.940;4.034;2023-05-16T07:05:02;10.75;;;2.12;;
52266;SDS011;38223;50.940;4.034;2023-05-16T07:07:35;12.90;;;2.02;;
52266;SDS011;38223;50.940;4.034;2023-05-16T07:10:04;7.23;;;1.70;;
52266;SDS011;38223;50.940;4.034;2023-05-16T07:12:32;9.00;;;1.65;;
52266;SDS011;38223;50.940;4.034;2023-05-16T07:15:05;6.15;;;1.72;;
52266;SDS011;38223;50.940;4.034;2023-05-16T07:17:37;8.33;;;1.52;;
52266;SDS011;38223;50.940;4.034;2023-05-16T07:20:08;6.17;;;1.35;;
52266;SDS011;38223;50.940;4.034;2023-05-16T07:22:39;12.25;;;1.77;;
52266;SDS011;38223;50.940;4.034;2023-05-16T07:25:11;8.45;;;1.37;;
52266;SDS011;38223;50.940;4.034;2023-05-16T07:27:40;8.95;;;1.62;;
52266;SDS011;38223;50.940;4.034;2023-05-16T07:30:13;11.73;;;1.37;;
52266;SDS011;38223;50.940;4.034;2023-05-16T07:32:44;7.58;;;1.35;;
52266;SDS011;38223;50.940;4.034;2023-05-16T07:35:18;7.78;;;1.47;;
52266;SDS011;38223;50.940;4.034;2023-05-16T07:37:47;8.10;;;1.57;;
52266;SDS011;38223;50.940;4.034;2023-05-16T07:40:19;5.17;;;1.27;;
52266;SDS011;38223;50.940;4.034;2023-05-16T07:42:51;8.40;;;1.32;;
52266;SDS011;38223;50.940;4.034;2023-05-16T07:45:24;8.18;;;1.30;;
52266;SDS011;38223;50.940;4.034;2023-05-16T07:47:55;7.05;;;1.72;;
52266;SDS011;38223;50.940;4.034;2023-05-16T07:50:26;5.75;;;1.20;;
52266;SDS011;38223;50.940;4.034;2023-05-16T07:52:55;7.30;;;1.45;;
52266;SDS011;38223;50.940;4.034;2023-05-16T07:55:25;9.30;;;1.42;;
52266;SDS011;38223;50.940;4.034;2023-05-16T07:57:56;5.47;;;1.32;;
52266;SDS011;38223;50.940;4.034;2023-05-16T08:00:28;5.85;;;1.47;;
52266;SDS011;38223;50.940;4.034;2023-05-16T08:03:01;9.95;;;1.62;;
52266;SDS011;38223;50.940;4.034;2023-05-16T08:05:33;7.53;;;1.10;;
52266;SDS011;38223;50.940;4.034;2023-05-16T08:08:05;5.37;;;0.98;;
52266;SDS011;38223;50.940;4.034;2023-05-16T08:10:37;7.62;;;1.20;;
52266;SDS011;38223;50.940;4.034;2023-05-16T08:13:06;5.55;;;1.15;;
52266;SDS011;38223;50.940;4.034;2023-05-16T08:15:36;5.37;;;1.02;;
52266;SDS011;38223;50.940;4.034;2023-05-16T08:18:11;6.47;;;1.10;;
52266;SDS011;38223;50.940;4.034;2023-05-16T08:20:42;5.70;;;1.20;;
52266;SDS011;38223;50.940;4.034;2023-05-16T08:23:19;5.72;;;0.98;;
52266;SDS011;38223;50.940;4.034;2023-05-16T08:25:50;4.25;;;1.45;;
52266;SDS011;38223;50.940;4.034;2023-05-16T08:28:19;7.05;;;1.42;;
52266;SDS011;38223;50.940;4.034;2023-05-16T08:30:50;7.37;;;1.22;;
52266;SDS011;38223;50.940;4.034;2023-05-16T08:33:21;6.22;;;1.05;;
52266;SDS011;38223;50.940;4.034;2023-05-16T08:35:50;4.35;;;0.70;;
52266;SDS011;38223;50.940;4.034;2023-05-16T08:38:18;5.45;;;0.90;;
52266;SDS011;38223;50.940;4.034;2023-05-16T08:40:46;4.87;;;1.20;;
52266;SDS011;38223;50.940;4.034;2023-05-16T08:43:17;4.60;;;1.47;;
52266;SDS011;38223;50.940;4.034;2023-05-16T08:45:48;4.22;;;1.47;;
52266;SDS011;38223;50.940;4.034;2023-05-16T08:48:20;5.42;;;1.20;;
52266;SDS011;38223;50.940;4.034;2023-05-16T08:50:57;5.80;;;1.50;;
52266;SDS011;38223;50.940;4.034;2023-05-16T08:53:39;7.87;;;1.42;;
52266;SDS011;38223;50.940;4.034;2023-05-16T08:56:03;4.10;;;1.10;;
52266;SDS011;38223;50.940;4.034;2023-05-16T08:58:35;6.03;;;1.32;;
52266;SDS011;38223;50.940;4.034;2023-05-16T09:01:13;7.92;;;1.10;;
52266;SDS011;38223;50.940;4.034;2023-05-16T09:03:49;4.67;;;0.90;;
52266;SDS011;38223;50.940;4.034;2023-05-16T09:06:26;6.53;;;1.30;;
52266;SDS011;38223;50.940;4.034;2023-05-16T09:08:56;5.62;;;1.30;;
52266;SDS011;38223;50.940;4.034;2023-05-16T09:11:28;4.75;;;0.78;;
52266;SDS011;38223;50.940;4.034;2023-05-16T09:14:03;5.80;;;1.20;;
52266;SDS011;38223;50.940;4.034;2023-05-16T09:16:31;6.95;;;1.02;;
52266;SDS011;38223;50.940;4.034;2023-05-16T09:19:11;7.30;;;1.57;;
52266;SDS011;38223;50.940;4.034;2023-05-16T09:21:46;3.92;;;1.02;;
52266;SDS011;38223;50.940;4.034;2023-05-16T09:24:21;6.15;;;1.10;;
52266;SDS011;38223;50.940;4.034;2023-05-16T09:26:56;3.27;;;0.95;;
52266;SDS011;38223;50.940;4.034;2023-05-16T09:29:40;4.22;;;0.80;;
52266;SDS011;38223;50.940;4.034;2023-05-16T09:32:12;2.25;;;0.80;;
52266;SDS011;38223;50.940;4.034;2023-05-16T09:34:47;4.03;;;0.70;;
52266;SDS011;38223;50.940;4.034;2023-05-16T09:37:20;9.15;;;0.80;;
52266;SDS011;38223;50.940;4.034;2023-05-16T09:39:51;5.25;;;1.05;;
52266;SDS011;38223;50.940;4.034;2023-05-16T09:42:22;5.00;;;0.80;;
52266;SDS011;38223;50.940;4.034;2023-05-16T09:44:56;2.85;;;0.93;;
52266;SDS011;38223;50.940;4.034;2023-05-16T09:47:26;5.12;;;1.07;;
52266;SDS011;38223;50.940;4.034;2023-05-16T09:49:58;7.05;;;1.00;;
52266;SDS011;38223;50.940;4.034;2023-05-16T09:52:31;6.62;;;0.80;;
52266;SDS011;38223;50.940;4.034;2023-05-16T09:55:08;5.00;;;1.15;;
52266;SDS011;38223;50.940;4.034;2023-05-16T09:57:46;6.37;;;1.55;;
52266;SDS011;38223;50.940;4.034;2023-05-16T10:00:31;5.87;;;1.40;;
52266;SDS011;38223;50.940;4.034;2023-05-16T10:03:01;5.35;;;1.20;;
52266;SDS011;38223;50.940;4.034;2023-05-16T10:05:41;3.98;;;1.12;;
52266;SDS011;38223;50.940;4.034;2023-05-16T10:08:11;5.03;;;1.10;;
52266;SDS011;38223;50.940;4.034;2023-05-16T10:10:39;4.60;;;1.20;;
52266;SDS011;38223;50.940;4.034;2023-05-16T10:13:11;6.47;;;1.07;;
52266;SDS011;38223;50.940;4.034;2023-05-16T10:15:47;3.58;;;1.07;;
52266;SDS011;38223;50.940;4.034;2023-05-16T10:18:17;4.35;;;0.90;;
52266;SDS011;38223;50.940;4.034;2023-05-16T10:20:46;3.70;;;1.22;;
52266;SDS011;38223;50.940;4.034;2023-05-16T10:23:17;8.75;;;1.22;;
52266;SDS011;38223;50.940;4.034;2023-05-16T10:25:47;4.97;;;0.78;;
52266;SDS011;38223;50.940;4.034;2023-05-16T10:28:15;3.02;;;0.90;;
52266;SDS011;38223;50.940;4.034;2023-05-16T10:30:46;4.92;;;1.37;;
52266;SDS011;38223;50.940;4.034;2023-05-16T10:33:17;4.80;;;1.20;;
52266;SDS011;38223;50.940;4.034;2023-05-16T10:35:49;3.72;;;0.90;;
52266;SDS011;38223;50.940;4.034;2023-05-16T10:38:22;4.72;;;0.88;;
52266;SDS011;38223;50.940;4.034;2023-05-16T10:40:50;3.80;;;0.90;;
52266;SDS011;38223;50.940;4.034;2023-05-16T10:43:22;6.70;;;1.32;;
52266;SDS011;38223;50.940;4.034;2023-05-16T10:45:55;3.12;;;0.88;;
52266;SDS011;38223;50.940;4.034;2023-05-16T10:48:29;3.92;;;0.90;;
52266;SDS011;38223;50.940;4.034;2023-05-16T10:50:56;3.95;;;1.20;;
52266;SDS011;38223;50.940;4.034;2023-05-16T11:11:54;2.67;;;0.80;;
52266;SDS011;38223;50.940;4.034;2023-05-16T11:14:28;4.40;;;0.95;;
52266;SDS011;38223;50.940;4.034;2023-05-16T11:17:13;3.45;;;0.95;;
52266;SDS011;38223;50.940;4.034;2023-05-16T11:19:50;6.78;;;1.10;;
52266;SDS011;38223;50.940;4.034;2023-05-16T11:27:45;6.72;;;1.32;;
52266;SDS011;38223;50.940;4.034;2023-05-16T11:30:14;6.47;;;1.07;;
52266;SDS011;38223;50.940;4.034;2023-05-16T11:32:45;3.05;;;0.82;;
52266;SDS011;38223;50.940;4.034;2023-05-16T11:35:16;3.45;;;0.85;;
52266;SDS011;38223;50.940;4.034;2023-05-16T11:37:46;2.55;;;1.05;;
52266;SDS011;38223;50.940;4.034;2023-05-16T11:40:17;2.65;;;0.80;;
52266;SDS011;38223;50.940;4.034;2023-05-16T11:42:47;4.22;;;0.98;;
52266;SDS011;38223;50.940;4.034;2023-05-16T11:45:20;4.75;;;1.07;;
52266;SDS011;38223;50.940;4.034;2023-05-16T11:47:53;6.00;;;1.67;;
52266;SDS011;38223;50.940;4.034;2023-05-16T11:50:24;5.35;;;0.90;;
52266;SDS011;38223;50.940;4.034;2023-05-16T11:52:55;4.90;;;0.90;;
52266;SDS011;38223;50.940;4.034;2023-05-16T11:55:24;2.22;;;0.68;;
52266;SDS011;38223;50.940;4.034;2023-05-16T11:57:53;3.33;;;0.82;;
52266;SDS011;38223;50.940;4.034;2023-05-16T12:00:33;6.20;;;0.72;;
52266;SDS011;38223;50.940;4.034;2023-05-16T12:03:04;5.10;;;1.00;;
52266;SDS011;38223;50.940;4.034;2023-05-16T12:05:36;3.27;;;1.07;;
52266;SDS011;38223;50.940;4.034;2023-05-16T12:08:04;7.35;;;0.80;;
52266;SDS011;38223;50.940;4.034;2023-05-16T12:10:34;3.12;;;0.82;;
52266;SDS011;38223;50.940;4.034;2023-05-16T12:13:07;4.60;;;1.20;;
52266;SDS011;38223;50.940;4.034;2023-05-16T12:15:39;3.52;;;0.82;;
52266;SDS011;38223;50.940;4.034;2023-05-16T12:18:10;3.42;;;0.93;;
52266;SDS011;38223;50.940;4.034;2023-05-16T12:20:38;4.35;;;1.05;;
52266;SDS011;38223;50.940;4.034;2023-05-16T12:23:09;3.02;;;0.93;;
52266;SDS011;38223;50.940;4.034;2023-05-16T12:25:46;3.22;;;0.93;;
52266;SDS011;38223;50.940;4.034;2023-05-16T12:28:17;5.95;;;1.20;;
52266;SDS011;38223;50.940;4.034;2023-05-16T12:30:46;3.17;;;0.75;;
52266;SDS011;38223;50.940;4.034;2023-05-16T12:33:14;3.85;;;0.90;;
52266;SDS011;38223;50.940;4.034;2023-05-16T12:35:43;3.17;;;0.70;;
52266;SDS011;38223;50.940;4.034;2023-05-16T12:38:13;3.12;;;1.20;;
52266;SDS011;38223;50.940;4.034;2023-05-16T12:40:44;6.65;;;1.20;;
52266;SDS011;38223;50.940;4.034;2023-05-16T12:43:16;3.20;;;1.00;;
52266;SDS011;38223;50.940;4.034;2023-05-16T12:45:54;3.25;;;1.02;;
52266;SDS011;38223;50.940;4.034;2023-05-16T12:48:17;4.15;;;1.00;;
52266;SDS011;38223;50.940;4.034;2023-05-16T12:50:47;9.75;;;1.12;;
52266;SDS011;38223;50.940;4.034;2023-05-16T12:53:18;4.15;;;1.20;;
52266;SDS011;38223;50.940;4.034;2023-05-16T12:55:47;6.15;;;1.62;;
52266;SDS011;38223;50.940;4.034;2023-05-16T12:58:15;5.00;;;1.00;;
52266;SDS011;38223;50.940;4.034;2023-05-16T13:00:43;5.75;;;1.10;;
52266;SDS011;38223;50.940;4.034;2023-05-16T13:03:11;4.42;;;0.90;;
52266;SDS011;38223;50.940;4.034;2023-05-16T13:05:38;4.65;;;1.07;;
52266;SDS011;38223;50.940;4.034;2023-05-16T13:08:06;4.20;;;1.30;;
52266;SDS011;38223;50.940;4.034;2023-05-16T13:10:34;5.53;;;1.15;;
52266;SDS011;38223;50.940;4.034;2023-05-16T13:13:01;4.65;;;1.32;;
52266;SDS011;38223;50.940;4.034;2023-05-16T13:15:35;6.17;;;1.02;;
52266;SDS011;38223;50.940;4.034;2023-05-16T13:18:07;6.35;;;1.25;;
52266;SDS011;38223;50.940;4.034;2023-05-16T13:20:40;5.20;;;0.88;;
52266;SDS011;38223;50.940;4.034;2023-05-16T13:23:10;4.75;;;1.10;;
52266;SDS011;38223;50.940;4.034;2023-05-16T13:25:40;4.12;;;1.32;;
52266;SDS011;38223;50.940;4.034;2023-05-16T13:28:07;5.22;;;1.10;;
52266;SDS011;38223;50.940;4.034;2023-05-16T13:30:38;5.67;;;1.02;;
52266;SDS011;38223;50.940;4.034;2023-05-16T13:33:06;9.78;;;1.22;;
52266;SDS011;38223;50.940;4.034;2023-05-16T13:35:39;3.47;;;0.93;;
52266;SDS011;38223;50.940;4.034;2023-05-16T13:38:11;6.00;;;1.00;;
52266;SDS011;38223;50.940;4.034;2023-05-16T13:40:38;4.47;;;0.90;;
52266;SDS011;38223;50.940;4.034;2023-05-16T13:43:06;4.03;;;0.85;;
52266;SDS011;38223;50.940;4.034;2023-05-16T13:45:34;3.37;;;1.02;;
52266;SDS011;38223;50.940;4.034;2023-05-16T13:48:02;5.62;;;1.07;;
52266;SDS011;38223;50.940;4.034;2023-05-16T13:50:30;3.85;;;0.98;;
52266;SDS011;38223;50.940;4.034;2023-05-16T13:52:58;2.08;;;0.72;;
52266;SDS011;38223;50.940;4.034;2023-05-16T13:55:26;3.27;;;1.00;;
52266;SDS011;38223;50.940;4.034;2023-05-16T13:57:56;3.30;;;1.05;;
52266;SDS011;38223;50.940;4.034;2023-05-16T14:00:24;5.62;;;1.72;;
52266;SDS011;38223;50.940;4.034;2023-05-16T14:02:52;2.75;;;0.90;;
52266;SDS011;38223;50.940;4.034;2023-05-16T14:05:23;3.35;;;1.15;;
52266;SDS011;38223;50.940;4.034;2023-05-16T14:07:56;5.67;;;0.90;;
52266;SDS011;38223;50.940;4.034;2023-05-16T14:10:29;3.87;;;1.20;;
52266;SDS011;38223;50.940;4.034;2023-05-16T14:12:59;3.00;;;0.90;;
52266;SDS011;38223;50.940;4.034;2023-05-16T14:15:27;3.37;;;1.20;;
52266;SDS011;38223;50.940;4.034;2023-05-16T14:17:57;2.75;;;1.00;;
52266;SDS011;38223;50.940;4.034;2023-05-16T14:20:29;3.98;;;1.10;;
52266;SDS011;38223;50.940;4.034;2023-05-16T14:22:58;6.83;;;1.30;;
52266;SDS011;38223;50.940;4.034;2023-05-16T14:25:26;4.37;;;1.17;;
52266;SDS011;38223;50.940;4.034;2023-05-16T14:27:54;2.58;;;1.10;;
52266;SDS011;38223;50.940;4.034;2023-05-16T14:30:22;1.95;;;0.75;;
52266;SDS011;38223;50.940;4.034;2023-05-16T14:32:49;6.15;;;1.35;;
52266;SDS011;38223;50.940;4.034;2023-05-16T14:35:23;5.78;;;1.10;;
52266;SDS011;38223;50.940;4.034;2023-05-16T14:37:52;1.92;;;0.95;;
52266;SDS011;38223;50.940;4.034;2023-05-16T14:40:23;4.85;;;1.17;;
52266;SDS011;38223;50.940;4.034;2023-05-16T14:42:53;8.47;;;1.47;;
52266;SDS011;38223;50.940;4.034;2023-05-16T14:45:25;4.72;;;1.20;;
52266;SDS011;38223;50.940;4.034;2023-05-16T14:47:54;4.20;;;0.93;;
52266;SDS011;38223;50.940;4.034;2023-05-16T14:50:23;7.22;;;1.30;;
52266;SDS011;38223;50.940;4.034;2023-05-16T14:52:57;3.15;;;0.93;;
52266;SDS011;38223;50.940;4.034;2023-05-16T14:55:25;5.55;;;1.15;;
52266;SDS011;38223;50.940;4.034;2023-05-16T14:57:55;3.42;;;0.93;;
52266;SDS011;38223;50.940;4.034;2023-05-16T15:00:23;4.87;;;1.30;;
52266;SDS011;38223;50.940;4.034;2023-05-16T15:02:51;2.75;;;0.72;;
52266;SDS011;38223;50.940;4.034;2023-05-16T15:05:19;2.85;;;0.75;;
52266;SDS011;38223;50.940;4.034;2023-05-16T15:07:47;4.05;;;1.02;;
52266;SDS011;38223;50.940;4.034;2023-05-16T15:10:15;4.12;;;0.90;;
52266;SDS011;38223;50.940;4.034;2023-05-16T15:12:43;3.17;;;1.05;;
52266;SDS011;38223;50.940;4.034;2023-05-16T15:15:10;5.03;;;0.80;;
52266;SDS011;38223;50.940;4.034;2023-05-16T15:17:39;3.95;;;0.72;;
52266;SDS011;38223;50.940;4.034;2023-05-16T15:20:07;3.20;;;0.82;;
52266;SDS011;38223;50.940;4.034;2023-05-16T15:22:39;2.83;;;0.70;;
52266;SDS011;38223;50.940;4.034;2023-05-16T15:25:08;4.70;;;1.20;;
52266;SDS011;38223;50.940;4.034;2023-05-16T15:27:36;3.60;;;1.10;;
52266;SDS011;38223;50.940;4.034;2023-05-16T15:30:04;4.83;;;0.95;;
52266;SDS011;38223;50.940;4.034;2023-05-16T15:32:52;2.55;;;0.88;;
52266;SDS011;38223;50.940;4.034;2023-05-16T15:35:22;2.80;;;0.95;;
52266;SDS011;38223;50.940;4.034;2023-05-16T15:37:50;2.60;;;0.80;;
52266;SDS011;38223;50.940;4.034;2023-05-16T15:40:21;3.00;;;0.80;;
52266;SDS011;38223;50.940;4.034;2023-05-16T15:42:54;4.05;;;0.90;;
52266;SDS011;38223;50.940;4.034;2023-05-16T15:45:21;1.72;;;0.50;;
52266;SDS011;38223;50.940;4.034;2023-05-16T15:47:49;4.17;;;0.50;;
52266;SDS011;38223;50.940;4.034;2023-05-16T15:50:17;3.15;;;0.70;;